Latest Weather Observations for North Head

IDN60901

Issued at 3:01 pm EDT Tuesday 15 October 2019 (issued every 10 minutes, with the page automatically refreshed every 10 minutes)

About weather observations | Map of Sydney area stations | Latest observations for Sydney area | Other Formats
Station Details ID: 066197 Name: NORTH HEAD Lat: -33.82 Lon: 151.30 Height: 90.0 m
Data from the previous 72 hours. | See also: Recent months at North Head
Date/Time
EDT
Temp
°C
App
Temp
°C
Dew
Point
°C
Rel
Hum
%
Delta-T
°C
Wind Press
QNH
hPa
Press
MSL
hPa
Rain since
9am
mm
Dir  Spd
km/h
Gust
km/h
Spd
kts
Gust
kts
15/03:00pm - - - - - NE 19 28 10 15 - - -
15/02:30pm - - - - - NE 15 24 8 13 - - -
15/02:00pm - - - - - NNE 15 20 8 11 - - -
15/01:30pm - - - - - NE 13 19 7 10 - - -
15/01:00pm - - - - - NE 15 22 8 12 - - -
15/12:30pm - - - - - E 15 20 8 11 - - -
15/12:00pm - - - - - ENE 13 17 7 9 - - -
15/11:30am - - - - - ENE 9 15 5 8 - - -
15/11:00am - - - - - E 9 13 5 7 - - -
15/10:30am - - - - - ENE 7 11 4 6 - - -
15/10:00am - - - - - E 6 7 3 4 - - -
15/09:30am - - - - - ENE 4 9 2 5 - - -
15/09:00am - - - - - NNW 4 7 2 4 - - -
15/08:30am - - - - - NW 2 2 1 1 - - -
15/08:00am - - - - - CALM 0 2 0 1 - - -
15/07:30am - - - - - N 4 6 2 3 - - -
15/07:00am - - - - - N 6 6 3 3 - - -
15/06:30am - - - - - N 7 7 4 4 - - -
15/06:00am - - - - - NNE 7 11 4 6 - - -
15/05:30am - - - - - ENE 7 7 4 4 - - -
15/05:00am - - - - - E 7 7 4 4 - - -
15/04:30am - - - - - ENE 6 7 3 4 - - -
15/04:00am - - - - - ENE 4 6 2 3 - - -
15/03:30am - - - - - N 2 6 1 3 - - -
15/03:00am - - - - - NNW 4 6 2 3 - - -
15/02:30am - - - - - NNW 4 6 2 3 - - -
15/02:00am - - - - - NNW 4 6 2 3 - - -
15/01:30am - - - - - N 4 7 2 4 - - -
15/01:00am - - - - - NNE 15 20 8 11 - - -
15/12:30am - - - - - NNE 15 22 8 12 - - -
15/12:00am - - - - - NNE 17 22 9 12 - - -
 
Date/Time
EDT
Temp
°C
App
Temp
°C
Dew
Point
°C
Rel
Hum
%
Delta-T
°C
Wind Press
QNH
hPa
Press
MSL
hPa
Rain since
9am
mm
Dir  Spd
km/h
Gust
km/h
Spd
kts
Gust
kts
14/11:30pm - - - - - NNE 15 20 8 11 - - -
14/11:00pm - - - - - NNE 17 26 9 14 - - -
14/10:30pm - - - - - NNE 17 26 9 14 - - -
14/10:00pm - - - - - NNE 17 26 9 14 - - -
14/09:30pm - - - - - NNE 17 24 9 13 - - -
14/09:00pm - - - - - NNE 19 28 10 15 - - -
14/08:30pm - - - - - NE 19 26 10 14 - - -
14/08:00pm - - - - - NE 19 28 10 15 - - -
14/07:30pm - - - - - NE 19 30 10 16 - - -
14/07:00pm - - - - - NNE 19 26 10 14 - - -
14/06:30pm - - - - - NNE 20 30 11 16 - - -
14/06:00pm - - - - - NNE 20 28 11 15 - - -
14/05:30pm - - - - - NE 19 26 10 14 - - -
14/05:00pm - - - - - NE 19 28 10 15 - - -
14/04:30pm - - - - - NE 17 26 9 14 - - -
14/04:00pm - - - - - NNE 17 28 9 15 - - -
14/03:30pm - - - - - NE 17 26 9 14 - - -
14/03:00pm - - - - - NE 20 28 11 15 - - -
14/02:30pm - - - - - NE 20 28 11 15 - - -
14/02:00pm - - - - - NE 19 28 10 15 - - -
14/01:30pm - - - - - NE 19 28 10 15 - - -
14/01:00pm - - - - - NE 19 28 10 15 - - -
14/12:30pm - - - - - NE 15 24 8 13 - - -
14/12:00pm - - - - - NNE 17 26 9 14 - - -
14/11:30am - - - - - NE 17 26 9 14 - - -
14/11:00am - - - - - NNE 15 24 8 13 - - -
14/10:30am - - - - - NNE 15 22 8 12 - - -
14/10:00am - - - - - NNE 13 20 7 11 - - -
14/09:30am - - - - - N 13 19 7 10 - - -
14/09:00am - - - - - N 11 17 6 9 - - -
14/08:30am - - - - - N 11 19 6 10 - - -
14/08:00am - - - - - N 9 17 5 9 - - -
14/07:30am - - - - - NNW 9 13 5 7 - - -
14/07:00am - - - - - NW 9 15 5 8 - - -
14/06:30am - - - - - NW 7 9 4 5 - - -
14/06:00am - - - - - NNW 7 11 4 6 - - -
14/05:30am - - - - - NW 7 9 4 5 - - -
14/05:00am - - - - - NNW 7 9 4 5 - - -
14/04:30am - - - - - NNW 7 9 4 5 - - -
14/04:00am - - - - - NNW 7 9 4 5 - - -
14/03:30am - - - - - NNW 9 11 5 6 - - -
14/03:00am - - - - - N 9 11 5 6 - - -
14/02:30am - - - - - N 7 11 4 6 - - -
14/02:00am - - - - - NNW 7 11 4 6 - - -
14/01:30am - - - - - NNW 7 9 4 5 - - -
14/01:00am - - - - - NNW 7 9 4 5 - - -
14/12:30am - - - - - NW 7 9 4 5 - - -
14/12:00am - - - - - NNW 7 9 4 5 - - -
 
Date/Time
EDT
Temp
°C
App
Temp
°C
Dew
Point
°C
Rel
Hum
%
Delta-T
°C
Wind Press
QNH
hPa
Press
MSL
hPa
Rain since
9am
mm
Dir  Spd
km/h
Gust
km/h
Spd
kts
Gust
kts
13/11:30pm - - - - - N 6 9 3 5 - - -
13/11:00pm - - - - - NNE 7 13 4 7 - - -
13/10:30pm - - - - - NNE 9 17 5 9 - - -
13/10:00pm - - - - - NE 11 17 6 9 - - -
13/09:30pm - - - - - NE 13 19 7 10 - - -
13/09:00pm - - - - - NE 13 17 7 9 - - -
13/08:30pm - - - - - ENE 13 20 7 11 - - -
13/08:00pm - - - - - ENE 11 17 6 9 - - -
13/07:30pm - - - - - E 9 15 5 8 - - -
13/07:00pm - - - - - E 11 17 6 9 - - -
13/06:30pm - - - - - E 11 19 6 10 - - -
13/06:00pm - - - - - E 11 19 6 10 - - -
13/05:30pm - - - - - E 11 15 6 8 - - -
13/05:00pm - - - - - ESE 11 17 6 9 - - -
13/04:30pm - - - - - ESE 11 19 6 10 - - -
13/04:00pm - - - - - ESE 15 20 8 11 - - -
13/03:30pm - - - - - ESE 13 19 7 10 - - -
13/03:00pm - - - - - ESE 15 19 8 10 - - -
13/02:30pm - - - - - ESE 13 17 7 9 - - -
13/02:00pm - - - - - SE 11 17 6 9 - - -
13/01:30pm - - - - - SE 11 17 6 9 - - -
13/01:00pm - - - - - ESE 9 15 5 8 - - -
13/12:30pm - - - - - ESE 9 13 5 7 - - -
13/12:00pm - - - - - SE 6 9 3 5 - - -
13/11:30am - - - - - SSW 7 11 4 6 - - -
13/11:00am - - - - - SSW 6 13 3 7 - - -
13/10:30am - - - - - WSW 6 9 3 5 - - -
13/10:00am - - - - - SW 6 9 3 5 - - -
13/09:30am - - - - - WSW 9 13 5 7 - - -
13/09:00am - - - - - WNW 7 11 4 6 - - -
13/08:30am - - - - - WNW 7 11 4 6 - - -
13/08:00am - - - - - W 9 13 5 7 - - -
13/07:30am - - - - - WSW 7 11 4 6 - - -
13/07:00am - - - - - SW 11 17 6 9 - - -
13/06:30am - - - - - WSW 11 22 6 12 - - -
13/06:00am - - - - - W 13 17 7 9 - - -
13/05:30am - - - - - W 11 15 6 8 - - -
13/05:00am - - - - - WNW 11 15 6 8 - - -
13/04:30am - - - - - W 7 11 4 6 - - -
13/04:00am - - - - - W 9 11 5 6 - - -
13/03:30am - - - - - S 7 11 4 6 - - -
13/03:00am - - - - - WSW 11 20 6 11 - - -
13/02:30am - - - - - WSW 11 17 6 9 - - -
13/02:00am - - - - - WSW 9 17 5 9 - - -
13/01:30am - - - - - W 7 11 4 6 - - -
13/01:00am - - - - - W 9 11 5 6 - - -
13/12:30am - - - - - SSW 9 15 5 8 - - -
13/12:00am - - - - - WSW 9 17 5 9 - - -
 
Date/Time
EDT
Temp
°C
App
Temp
°C
Dew
Point
°C
Rel
Hum
%
Delta-T
°C
Wind Press
QNH
hPa
Press
MSL
hPa
Rain since
9am
mm
Dir  Spd
km/h
Gust
km/h
Spd
kts
Gust
kts
12/11:30pm - - - - - WSW 6 13 3 7 - - -
12/11:00pm - - - - - SSW 7 13 4 7 - - -
12/10:30pm - - - - - SE 11 19 6 10 - - -
12/10:00pm - - - - - SE 13 20 7 11 - - -
12/09:30pm - - - - - SSE 15 24 8 13 - - -
12/09:00pm - - - - - SE 15 24 8 13 - - -
12/08:30pm - - - - - SE 15 24 8 13 - - -
12/08:00pm - - - - - SSE 19 30 10 16 - - -
12/07:30pm - - - - - SE 19 28 10 15 - - -
12/07:00pm - - - - - SE 17 24 9 13 - - -
12/06:30pm - - - - - SE 17 33 9 18 - - -
12/06:00pm - - - - - ESE 20 33 11 18 - - -
12/05:30pm - - - - - SE 20 32 11 17 - - -
12/05:00pm - - - - - SE 20 37 11 20 - - -
12/04:30pm - - - - - SSE 20 37 11 20 - - -
12/04:00pm - - - - - SE 22 33 12 18 - - -
12/03:30pm - - - - - ESE 26 39 14 21 - - -

Latest Capital City Observations: Canberra | Sydney | Melbourne | Brisbane | Adelaide | Perth | Hobart | Darwin

Other formats

Comma delimited format used in spreadsheet applications
http://www.bom.gov.au/fwo/IDN60901/IDN60901.95768.axf

JavaScript Object Notation format (JSON) in row-major order
http://www.bom.gov.au/fwo/IDN60901/IDN60901.95768.json

Data quality

Most of these data are generated automatically and are frequently updated. Quality checks on data are not normally performed. It is possible for incorrect values to appear. Refer to information at About Latest Weather Observations and please check the disclaimer before using these data.